createdAt,value
2023-01-10T00:02:24.111Z,97892.98
2023-01-10T00:05:30.149Z,97897.97
2023-01-10T00:08:35.984Z,97903.84
2023-01-10T00:11:59.454Z,97901.73
2023-01-10T00:15:05.840Z,97901.07
2023-01-10T00:18:11.683Z,97903.88
2023-01-10T00:21:19.863Z,97907.74
2023-01-10T00:24:26.571Z,97910.11
2023-01-10T00:27:32.640Z,97913.16
2023-01-10T00:30:40.992Z,97916.56
2023-01-10T00:33:47.398Z,97915.89
2023-01-10T00:36:51.652Z,97918.27
2023-01-10T00:39:57.350Z,97926.90
2023-01-10T00:43:20.753Z,97927.80
2023-01-10T00:46:26.883Z,97933.98
2023-01-10T00:49:32.668Z,97938.29
2023-01-10T00:52:38.427Z,97938.92
2023-01-10T00:55:44.162Z,97942.95
2023-01-10T00:58:49.896Z,97948.14
2023-01-10T01:01:55.707Z,97950.66
2023-01-10T01:05:01.645Z,97955.63
2023-01-10T01:08:07.713Z,97959.55
2023-01-10T01:11:13.673Z,97959.66
2023-01-10T01:14:19.507Z,97966.08
2023-01-10T01:17:25.276Z,97965.92
2023-01-10T01:20:32.361Z,97963.06
2023-01-10T01:23:38.716Z,97956.13
2023-01-10T01:26:43.359Z,97963.46
2023-01-10T01:29:49.218Z,97964.86
2023-01-10T01:32:55.377Z,97968.64
2023-01-10T01:35:59.702Z,97975.84
2023-01-10T01:39:06.295Z,97975.40
2023-01-10T01:42:25.850Z,97974.94
2023-01-10T01:45:40.316Z,97980.77
2023-01-10T01:48:46.883Z,97980.60
2023-01-10T01:51:56.649Z,97977.30
2023-01-10T01:55:04.255Z,97977.77
2023-01-10T01:58:15.022Z,97976.58
2023-01-10T02:01:22.965Z,97974.72
2023-01-10T02:04:32.571Z,97975.66
2023-01-10T02:07:41.375Z,97977.83
2023-01-10T02:10:54.198Z,97981.32
2023-01-10T02:14:01.395Z,97984.52
2023-01-10T02:17:10.234Z,97986.33
2023-01-10T02:20:18.648Z,97981.58
2023-01-10T02:24:02.780Z,97985.56
2023-01-10T02:27:20.423Z,97991.01
2023-01-10T02:30:46.171Z,97992.09
2023-01-10T02:33:59.005Z,97991.24
2023-01-10T02:37:13.746Z,97992.41
2023-01-10T02:40:28.408Z,97995.99
2023-01-10T02:43:39.519Z,97997.78
2023-01-10T02:46:48.072Z,98002.92
2023-01-10T02:49:54.861Z,98005.89
2023-01-10T02:53:06.044Z,98011.77
2023-01-10T02:56:31.102Z,98013.16
2023-01-10T03:00:14.589Z,98018.70
2023-01-10T03:03:33.497Z,98017.19
2023-01-10T03:06:51.002Z,98019.98
2023-01-10T03:10:03.087Z,98022.54
2023-01-10T03:13:13.262Z,98022.13
2023-01-10T03:16:24.906Z,98027.20
2023-01-10T03:19:34.202Z,98029.63
2023-01-10T03:22:42.296Z,98038.42
2023-01-10T03:25:51.643Z,98037.36
2023-01-10T03:29:02.518Z,98045.27
2023-01-10T03:32:12.000Z,98050.06
2023-01-10T03:35:18.439Z,98047.44
2023-01-10T03:38:32.784Z,98058.14
2023-01-10T03:41:42.431Z,98064.49
2023-01-10T03:44:59.653Z,98069.77
2023-01-10T03:48:08.146Z,98078.96
2023-01-10T03:51:15.492Z,98079.03
2023-01-10T03:54:21.734Z,98086.97
2023-01-10T03:57:28.086Z,98089.48
2023-01-10T04:00:32.197Z,98091.27
2023-01-10T04:03:38.007Z,98096.13
2023-01-10T04:06:43.867Z,98100.65
2023-01-10T04:09:49.641Z,98102.40
2023-01-10T04:12:55.430Z,98102.61
2023-01-10T04:16:03.056Z,98105.09
2023-01-10T04:19:09.254Z,98114.11
2023-01-10T04:22:15.444Z,98123.62
2023-01-10T04:25:21.220Z,98120.28
2023-01-10T04:28:27.150Z,98123.78
2023-01-10T04:31:32.994Z,98130.02
2023-01-10T04:34:39.303Z,98127.60
2023-01-10T04:37:45.838Z,98127.60
2023-01-10T04:40:57.868Z,98131.52
2023-01-10T04:44:03.944Z,98132.31
2023-01-10T04:47:09.761Z,98137.50
2023-01-10T04:50:16.441Z,98141.27
2023-01-10T04:53:22.932Z,98145.79
2023-01-10T04:56:28.771Z,98152.54
2023-01-10T04:59:34.627Z,98158.33
2023-01-10T05:02:44.409Z,98162.36
2023-01-10T05:05:50.359Z,98172.52
2023-01-10T05:08:56.106Z,98185.34
2023-01-10T05:12:02.362Z,98190.41
2023-01-10T05:15:09.821Z,98195.46
2023-01-10T05:18:15.847Z,98198.09
2023-01-10T05:21:21.700Z,98203.97
2023-01-10T05:24:27.414Z,98211.77
2023-01-10T05:27:33.268Z,98214.14
2023-01-10T05:30:39.031Z,98216.96
2023-01-10T05:33:48.178Z,98227.06
2023-01-10T05:36:53.923Z,98235.91
2023-01-10T05:39:59.686Z,98239.35
2023-01-10T05:43:05.634Z,98251.52
2023-01-10T05:46:11.653Z,98257.77
2023-01-10T05:49:17.457Z,98263.29
2023-01-10T05:52:23.199Z,98265.90
2023-01-10T05:55:28.977Z,98273.67
2023-01-10T05:58:34.715Z,98282.13
2023-01-10T06:01:40.456Z,98287.38
2023-01-10T06:04:46.209Z,98293.73
2023-01-10T06:07:52.176Z,98296.64
2023-01-10T06:10:58.241Z,98302.01
2023-01-10T06:14:04.226Z,98306.48
2023-01-10T06:17:10.294Z,98311.30
2023-01-10T06:20:16.743Z,98317.30
2023-01-10T06:23:22.449Z,98320.05
2023-01-10T06:26:28.178Z,98322.21
2023-01-10T06:29:34.816Z,98331.52
2023-01-10T06:32:42.501Z,98337.45
2023-01-10T06:35:48.363Z,98338.06
2023-01-10T06:38:54.115Z,98342.81
2023-01-10T06:41:59.858Z,98348.71
2023-01-10T06:45:06.582Z,98347.98
2023-01-10T06:48:12.300Z,98352.41
2023-01-10T06:51:20.190Z,98356.81
2023-01-10T06:54:26.273Z,98357.74
2023-01-10T06:57:35.470Z,98360.84
2023-01-10T07:00:41.672Z,98362.83
2023-01-10T07:03:48.081Z,98367.88
2023-01-10T07:06:53.921Z,98381.06
2023-01-10T07:09:59.997Z,98385.98
2023-01-10T07:13:05.731Z,98389.98
2023-01-10T07:16:14.390Z,98388.95
2023-01-10T07:19:20.543Z,98392.84
2023-01-10T07:22:26.564Z,98394.95
2023-01-10T07:25:32.720Z,98395.48
2023-01-10T07:28:39.051Z,98398.70
2023-01-10T07:31:43.339Z,98407.50
2023-01-10T07:34:49.270Z,98405.89
2023-01-10T07:37:55.539Z,98404.27
2023-01-10T07:41:02.518Z,98404.78
2023-01-10T07:44:08.580Z,98407.15
2023-01-10T07:47:14.439Z,98404.92
2023-01-10T07:50:20.706Z,98410.68
2023-01-10T07:53:25.427Z,98422.39
2023-01-10T07:56:31.285Z,98429.51
2023-01-10T07:59:37.153Z,98430.69
2023-01-10T08:02:42.989Z,98429.27
2023-01-10T08:05:49.064Z,98433.33
2023-01-10T08:08:54.818Z,98447.02
2023-01-10T08:12:00.904Z,98457.31
2023-01-10T08:15:08.117Z,98463.05
2023-01-10T08:18:14.035Z,98467.56
2023-01-10T08:21:20.916Z,98473.02
2023-01-10T08:24:26.747Z,98477.77
2023-01-10T08:27:32.624Z,98486.20
2023-01-10T08:30:38.750Z,98490.83
2023-01-10T08:33:44.569Z,98490.22
2023-01-10T08:36:53.096Z,98490.73
2023-01-10T08:39:58.922Z,98494.10
2023-01-10T08:43:06.630Z,98505.25
2023-01-10T08:46:12.547Z,98512.99
2023-01-10T08:49:18.577Z,98515.73
2023-01-10T08:52:24.393Z,98525.13
2023-01-10T08:55:31.774Z,98535.95
2023-01-10T08:58:37.748Z,98537.45
2023-01-10T09:01:43.586Z,98543.80
2023-01-10T09:04:49.765Z,98552.13
2023-01-10T09:07:59.729Z,98558.58
2023-01-10T09:11:06.630Z,98556.58
2023-01-10T09:14:12.372Z,98552.42
2023-01-10T09:17:18.363Z,98558.35
2023-01-10T09:20:24.718Z,98565.02
2023-01-10T09:23:30.425Z,98570.04
2023-01-10T09:26:36.267Z,98578.86
2023-01-10T09:29:42.146Z,98583.10
2023-01-10T09:32:52.829Z,98586.73
2023-01-10T09:36:00.181Z,98580.80
2023-01-10T09:39:06.047Z,98579.21
2023-01-10T09:42:29.531Z,98586.73
2023-01-10T09:45:43.811Z,98593.08
2023-01-10T09:48:56.523Z,98596.14
2023-01-10T09:52:08.820Z,98589.77
2023-01-10T09:55:24.987Z,98595.54
2023-01-10T09:58:33.447Z,98610.31
2023-01-10T10:01:40.307Z,98609.23
2023-01-10T10:04:56.928Z,98611.98
2023-01-10T10:08:05.054Z,98617.99
2023-01-10T10:11:36.523Z,98617.70
2023-01-10T10:14:56.166Z,98616.05
2023-01-10T10:18:12.377Z,98622.05
2023-01-10T10:21:26.024Z,98625.16
2023-01-10T10:24:48.390Z,98621.52
2023-01-10T10:28:08.056Z,98621.67
2023-01-10T10:31:22.968Z,98620.21
2023-01-10T10:34:36.772Z,98614.29
2023-01-10T10:37:46.310Z,98624.91
2023-01-10T10:40:53.208Z,98627.02
2023-01-10T10:44:04.963Z,98625.20
2023-01-10T10:47:17.618Z,98626.45
2023-01-10T10:50:32.448Z,98628.58
2023-01-10T10:53:38.506Z,98637.30
2023-01-10T10:56:45.508Z,98644.09
2023-01-10T10:59:51.964Z,98647.79
2023-01-10T11:03:02.689Z,98648.67
2023-01-10T11:06:11.246Z,98653.02
2023-01-10T11:09:20.273Z,98660.56
2023-01-10T11:12:31.186Z,98661.49
2023-01-10T11:15:43.548Z,98659.40
2023-01-10T11:19:09.133Z,98656.05
2023-01-10T11:22:18.931Z,98654.83
2023-01-10T11:25:26.143Z,98660.98
2023-01-10T11:28:35.122Z,98670.41
2023-01-10T11:31:42.383Z,98680.30
2023-01-10T11:34:55.058Z,98693.30
2023-01-10T11:38:08.104Z,98699.55
2023-01-10T11:41:31.773Z,98704.83
2023-01-10T11:44:37.707Z,98705.73
2023-01-10T11:47:48.080Z,98705.73
2023-01-10T11:50:55.880Z,98714.23
2023-01-10T11:54:03.788Z,98728.61
2023-01-10T11:57:17.451Z,98737.30
2023-01-10T12:00:32.402Z,98741.20
2023-01-10T12:03:40.400Z,98747.02
2023-01-10T12:06:49.357Z,98751.59
2023-01-10T12:10:00.238Z,98763.79
2023-01-10T12:13:17.522Z,98766.94
2023-01-10T12:16:25.915Z,98773.05
2023-01-10T12:19:32.475Z,98782.08
2023-01-10T12:22:41.062Z,98785.31
2023-01-10T12:25:51.472Z,98787.45
2023-01-10T12:29:03.015Z,98790.69
2023-01-10T12:32:15.217Z,98794.52
2023-01-10T12:35:26.376Z,98796.00
2023-01-10T12:38:55.379Z,98797.50
2023-01-10T12:42:30.743Z,98798.48
2023-01-10T12:45:43.668Z,98799.73
2023-01-10T12:48:57.281Z,98807.54
2023-01-10T12:52:11.735Z,98809.79
2023-01-10T12:55:20.048Z,98818.35
2023-01-10T12:58:29.110Z,98829.29
2023-01-10T13:01:40.662Z,98835.15
2023-01-10T13:04:52.574Z,98850.14
2023-01-10T13:08:05.945Z,98856.48
2023-01-10T13:11:17.209Z,98861.02
2023-01-10T13:14:28.810Z,98870.26
2023-01-10T13:17:42.013Z,98872.50
2023-01-10T13:20:50.045Z,98864.75
2023-01-10T13:23:59.698Z,98861.13
2023-01-10T13:27:06.639Z,98864.78
2023-01-10T13:30:29.311Z,98867.64
2023-01-10T13:33:41.384Z,98868.08
2023-01-10T13:36:52.480Z,98875.18
2023-01-10T13:40:06.659Z,98882.29
2023-01-10T13:43:47.426Z,98900.45
2023-01-10T13:46:53.573Z,98908.89
2023-01-10T13:49:59.328Z,98905.77
2023-01-10T13:53:35.793Z,98903.61
2023-01-10T13:56:43.375Z,98902.27
2023-01-10T14:00:23.717Z,98899.46
2023-01-10T14:03:50.983Z,98903.98
2023-01-10T14:06:59.457Z,98914.71
2023-01-10T14:10:08.605Z,98915.98
2023-01-10T14:13:23.764Z,98922.27
2023-01-10T14:16:36.712Z,98932.30
2023-01-10T14:19:43.795Z,98923.37
2023-01-10T14:23:03.516Z,98919.27
2023-01-10T14:26:16.276Z,98926.56
2023-01-10T14:29:22.837Z,98930.56
2023-01-10T14:32:40.836Z,98926.23
2023-01-10T14:35:51.573Z,98913.67
2023-01-10T14:39:01.081Z,98912.82
2023-01-10T14:42:14.268Z,98913.59
2023-01-10T14:45:30.748Z,98906.32
2023-01-10T14:48:42.218Z,98909.25
2023-01-10T14:51:50.573Z,98912.11
2023-01-10T14:55:07.639Z,98911.70
2023-01-10T14:58:19.867Z,98914.00
2023-01-10T15:01:31.799Z,98917.48
2023-01-10T15:04:39.075Z,98922.98
2023-01-10T15:07:44.995Z,98926.47
2023-01-10T15:10:54.255Z,98933.88
2023-01-10T15:14:07.581Z,98941.34
2023-01-10T15:17:20.530Z,98948.27
2023-01-10T15:20:27.258Z,98954.12
2023-01-10T15:23:39.262Z,98953.23
2023-01-10T15:26:45.072Z,98957.86
2023-01-10T15:29:51.077Z,98961.89
2023-01-10T15:32:59.011Z,98968.89
2023-01-10T15:36:09.321Z,98975.95
2023-01-10T15:39:22.136Z,98983.06
2023-01-10T15:42:28.394Z,98989.90
2023-01-10T15:45:39.206Z,98992.73
2023-01-10T15:48:54.793Z,98998.81
2023-01-10T15:51:59.518Z,98997.63
2023-01-10T15:55:36.195Z,99001.48
2023-01-10T15:58:45.532Z,99008.24
2023-01-10T16:01:58.754Z,99015.84
2023-01-10T16:05:17.950Z,99018.47
2023-01-10T16:08:27.088Z,99020.88
2023-01-10T16:11:57.509Z,99022.98
2023-01-10T16:15:03.776Z,99028.61
2023-01-10T16:18:09.843Z,99032.10
2023-01-10T16:21:16.310Z,99032.61
2023-01-10T16:24:24.230Z,99033.35
2023-01-10T16:27:30.038Z,99038.91
2023-01-10T16:30:40.663Z,99044.09
2023-01-10T16:33:46.668Z,99045.15
2023-01-10T16:36:52.541Z,99047.79
2023-01-10T16:39:59.117Z,99052.61
2023-01-10T16:43:21.846Z,99059.27
2023-01-10T16:46:27.843Z,99061.14
2023-01-10T16:49:33.607Z,99069.03
2023-01-10T16:52:39.341Z,99075.06
2023-01-10T16:55:47.038Z,99082.70
2023-01-10T16:58:54.613Z,99086.15
2023-01-10T17:02:01.242Z,99092.38
2023-01-10T17:05:08.263Z,99092.91
2023-01-10T17:08:18.429Z,99093.36
2023-01-10T17:11:27.911Z,99094.92
2023-01-10T17:14:36.450Z,99102.14
2023-01-10T17:17:44.977Z,99106.66
2023-01-10T17:20:51.295Z,99107.31
2023-01-10T17:23:57.167Z,99115.16
2023-01-10T17:27:02.893Z,99119.88
2023-01-10T17:30:10.708Z,99127.23
2023-01-10T17:33:16.465Z,99132.06
2023-01-10T17:36:22.650Z,99133.13
2023-01-10T17:39:28.807Z,99134.33
2023-01-10T17:42:34.905Z,99141.05
2023-01-10T17:45:43.518Z,99138.70
2023-01-10T17:48:49.280Z,99141.30
2023-01-10T17:51:55.287Z,99148.19
2023-01-10T17:55:01.159Z,99148.95
2023-01-10T17:58:06.896Z,99148.94
2023-01-10T18:01:23.817Z,99148.00
2023-01-10T18:04:30.914Z,99148.98
2023-01-10T18:07:36.758Z,99149.30
2023-01-10T18:10:42.611Z,99155.77
2023-01-10T18:13:48.773Z,99163.25
2023-01-10T18:16:54.811Z,99166.59
2023-01-10T18:20:01.209Z,99167.78
2023-01-10T18:23:22.497Z,99166.80
2023-01-10T18:26:28.601Z,99167.10
2023-01-10T18:29:34.646Z,99166.45
2023-01-10T18:32:40.812Z,99169.22
2023-01-10T18:35:48.829Z,99173.44
2023-01-10T18:38:55.298Z,99165.79
2023-01-10T18:42:01.378Z,99165.20
2023-01-10T18:45:08.733Z,99168.61
2023-01-10T18:48:16.475Z,99177.29
2023-01-10T18:51:23.822Z,99183.92
2023-01-10T18:54:29.900Z,99184.75
2023-01-10T18:57:35.946Z,99190.02
2023-01-10T19:00:43.012Z,99190.27
2023-01-10T19:03:50.247Z,99190.63
2023-01-10T19:06:56.945Z,99185.48
2023-01-10T19:10:03.154Z,99185.67
2023-01-10T19:13:09.154Z,99186.21
2023-01-10T19:16:17.291Z,99183.83
2023-01-10T19:19:25.969Z,99187.14
2023-01-10T19:22:33.188Z,99193.95
2023-01-10T19:25:39.324Z,99200.11
2023-01-10T19:28:46.267Z,99201.16
2023-01-10T19:31:52.853Z,99203.66
2023-01-10T19:34:58.812Z,99204.34
2023-01-10T19:38:05.167Z,99204.71
2023-01-10T19:41:11.655Z,99204.58
2023-01-10T19:44:19.235Z,99204.00
2023-01-10T19:47:25.412Z,99205.48
2023-01-10T19:50:31.427Z,99207.23
2023-01-10T19:53:39.247Z,99204.61
2023-01-10T19:56:45.375Z,99208.40
2023-01-10T19:59:52.599Z,99205.44
2023-01-10T20:02:58.957Z,99203.95
2023-01-10T20:06:04.369Z,99204.05
2023-01-10T20:09:13.137Z,99209.88
2023-01-10T20:12:19.168Z,99214.21
2023-01-10T20:15:27.530Z,99216.82
2023-01-10T20:18:34.101Z,99219.14
2023-01-10T20:21:41.452Z,99219.39
2023-01-10T20:24:47.637Z,99219.13
2023-01-10T20:27:53.816Z,99221.96
2023-01-10T20:30:59.851Z,99228.51
2023-01-10T20:34:06.060Z,99233.99
2023-01-10T20:37:14.203Z,99236.15
2023-01-10T20:40:22.920Z,99237.59
2023-01-10T20:43:29.160Z,99241.69
2023-01-10T20:46:36.833Z,99241.73
2023-01-10T20:49:42.899Z,99240.70
2023-01-10T20:52:49.032Z,99242.45
2023-01-10T20:55:59.972Z,99247.20
2023-01-10T20:59:06.787Z,99255.14
2023-01-10T21:02:14.357Z,99255.02
2023-01-10T21:05:20.635Z,99261.30
2023-01-10T21:08:26.860Z,99263.23
2023-01-10T21:11:38.820Z,99265.30
2023-01-10T21:14:53.924Z,99267.77
2023-01-10T21:17:59.980Z,99268.38
2023-01-10T21:21:06.602Z,99267.38
2023-01-10T21:24:13.522Z,99270.23
2023-01-10T21:27:19.713Z,99272.45
2023-01-10T21:30:27.044Z,99276.33
2023-01-10T21:33:33.446Z,99278.77
2023-01-10T21:36:37.938Z,99278.23
2023-01-10T21:39:43.923Z,99278.71
2023-01-10T21:42:50.044Z,99281.35
2023-01-10T21:46:00.742Z,99284.31
2023-01-10T21:49:07.438Z,99283.80
2023-01-10T21:52:13.564Z,99285.34
2023-01-10T21:55:19.652Z,99281.61
2023-01-10T21:58:25.792Z,99280.02
2023-01-10T22:01:31.992Z,99280.31
2023-01-10T22:04:38.122Z,99284.96
2023-01-10T22:07:46.101Z,99282.75
2023-01-10T22:10:52.122Z,99280.30
2023-01-10T22:13:58.379Z,99281.16
2023-01-10T22:17:04.439Z,99280.56
2023-01-10T22:20:13.413Z,99279.91
2023-01-10T22:23:19.608Z,99278.77
2023-01-10T22:26:25.543Z,99279.98
2023-01-10T22:29:31.570Z,99278.61
2023-01-10T22:32:37.588Z,99283.38
2023-01-10T22:35:43.901Z,99277.23
2023-01-10T22:38:48.974Z,99274.63
2023-01-10T22:41:55.363Z,99268.46
2023-01-10T22:45:01.459Z,99265.85
2023-01-10T22:48:08.199Z,99266.98
2023-01-10T22:51:14.618Z,99271.96
2023-01-10T22:54:20.669Z,99275.25
2023-01-10T22:57:28.729Z,99273.58
2023-01-10T23:00:35.053Z,99270.77
2023-01-10T23:03:41.232Z,99267.28
2023-01-10T23:06:45.605Z,99266.86
2023-01-10T23:09:51.820Z,99276.20
2023-01-10T23:12:58.011Z,99280.25
2023-01-10T23:16:03.481Z,99277.64
2023-01-10T23:19:09.515Z,99281.39
2023-01-10T23:22:16.112Z,99284.45
2023-01-10T23:25:22.200Z,99286.58
2023-01-10T23:28:28.129Z,99285.06
2023-01-10T23:31:34.329Z,99282.37
2023-01-10T23:34:40.519Z,99280.64
2023-01-10T23:37:46.520Z,99273.96
2023-01-10T23:40:52.557Z,99271.75
2023-01-10T23:43:58.521Z,99270.13
2023-01-10T23:47:04.531Z,99275.10
2023-01-10T23:50:12.191Z,99278.50
2023-01-10T23:53:19.286Z,99279.80
2023-01-10T23:56:25.300Z,99279.11
2023-01-10T23:59:31.243Z,99274.74
